createdAt,value
2022-08-21T00:00:27.530Z,97266.72
2022-08-21T00:02:59.440Z,97267.53
2022-08-21T00:05:27.153Z,97269.22
2022-08-21T00:07:54.787Z,97264.88
2022-08-21T00:10:21.995Z,97256.69
2022-08-21T00:12:52.008Z,97260.59
2022-08-21T00:15:24.391Z,97257.94
2022-08-21T00:17:51.043Z,97253.41
2022-08-21T00:20:18.612Z,97261.22
2022-08-21T00:22:46.139Z,97254.22
2022-08-21T00:25:14.235Z,97250.13
2022-08-21T00:27:43.466Z,97243.34
2022-08-21T00:30:11.922Z,97244.56
2022-08-21T00:32:49.586Z,97244.75
2022-08-21T00:35:19.604Z,97242.25
2022-08-21T00:37:46.319Z,97245.13
2022-08-21T00:40:17.232Z,97244.50
2022-08-21T00:42:44.894Z,97244.31
2022-08-21T00:45:21.925Z,97244.31
2022-08-21T00:47:48.595Z,97245.38
2022-08-21T00:50:21.620Z,97240.84
2022-08-21T00:52:52.602Z,97238.63
2022-08-21T00:55:21.797Z,97230.19
2022-08-21T00:57:53.098Z,97232.06
2022-08-21T01:00:25.781Z,97230.81
2022-08-21T01:02:52.464Z,97234.34
2022-08-21T01:05:19.210Z,97233.31
2022-08-21T01:07:46.166Z,97228.59
2022-08-21T01:10:23.761Z,97229.63
2022-08-21T01:12:52.963Z,97227.97
2022-08-21T01:15:21.632Z,97224.31
2022-08-21T01:17:50.016Z,97228.78
2022-08-21T01:20:17.474Z,97223.44
2022-08-21T01:22:44.250Z,97223.88
2022-08-21T01:25:12.755Z,97219.13
2022-08-21T01:27:39.823Z,97220.16
2022-08-21T01:30:21.008Z,97217.09
2022-08-21T01:32:48.720Z,97207.22
2022-08-21T01:35:16.787Z,97215.22
2022-08-21T01:37:44.390Z,97221.75
2022-08-21T01:40:13.441Z,97219.69
2022-08-21T01:42:40.646Z,97223.78
2022-08-21T01:45:08.682Z,97213.13
2022-08-21T01:47:35.412Z,97210.25
2022-08-21T01:50:02.666Z,97210.84
2022-08-21T01:52:30.138Z,97210.84
2022-08-21T01:54:56.790Z,97209.00
2022-08-21T01:57:26.216Z,97201.19
2022-08-21T01:59:54.184Z,97199.97
2022-08-21T02:02:20.848Z,97200.56
2022-08-21T02:04:47.719Z,97193.19
2022-08-21T02:07:14.583Z,97195.84
2022-08-21T02:09:43.079Z,97183.34
2022-08-21T02:12:11.633Z,97184.97
2022-08-21T02:14:40.533Z,97188.06
2022-08-21T02:17:09.567Z,97179.44
2022-08-21T02:19:40.217Z,97184.16
2022-08-21T02:22:11.658Z,97179.25
2022-08-21T02:24:54.692Z,97177.00
2022-08-21T02:27:26.283Z,97173.72
2022-08-21T02:29:55.426Z,97176.81
2022-08-21T02:32:22.430Z,97177.84
2022-08-21T02:34:49.855Z,97167.59
2022-08-21T02:37:16.695Z,97166.97
2022-08-21T02:39:43.452Z,97168.44
2022-08-21T02:42:10.133Z,97164.13
2022-08-21T02:44:36.855Z,97157.16
2022-08-21T02:47:03.543Z,97156.13
2022-08-21T02:49:30.198Z,97162.31
2022-08-21T02:51:56.935Z,97157.81
2022-08-21T02:54:23.595Z,97158.44
2022-08-21T02:56:50.286Z,97154.53
2022-08-21T02:59:17.006Z,97163.97
2022-08-21T03:01:43.939Z,97161.13
2022-08-21T03:04:11.430Z,97168.31
2022-08-21T03:06:38.107Z,97165.25
2022-08-21T03:09:05.010Z,97161.75
2022-08-21T03:11:31.681Z,97174.25
2022-08-21T03:13:58.389Z,97161.16
2022-08-21T03:16:25.095Z,97164.44
2022-08-21T03:18:51.841Z,97165.25
2022-08-21T03:21:19.910Z,97159.94
2022-08-21T03:23:47.582Z,97157.47
2022-08-21T03:26:14.922Z,97156.44
2022-08-21T03:28:42.917Z,97154.78
2022-08-21T03:31:09.793Z,97155.34
2022-08-21T03:33:36.615Z,97157.38
2022-08-21T03:36:08.318Z,97154.31
2022-08-21T03:38:36.886Z,97163.06
2022-08-21T03:41:05.439Z,97164.53
2022-08-21T03:43:33.465Z,97162.47
2022-08-21T03:46:03.027Z,97165.56
2022-08-21T03:48:30.129Z,97163.75
2022-08-21T03:50:57.562Z,97172.59
2022-08-21T03:53:24.372Z,97174.28
2022-08-21T03:55:53.691Z,97172.41
2022-08-21T03:58:23.990Z,97170.78
2022-08-21T04:00:54.916Z,97172.63
2022-08-21T04:03:21.916Z,97172.63
2022-08-21T04:05:48.697Z,97170.78
2022-08-21T04:08:19.518Z,97168.53
2022-08-21T04:10:50.696Z,97177.56
2022-08-21T04:13:17.466Z,97174.28
2022-08-21T04:15:44.438Z,97171.00
2022-08-21T04:18:11.965Z,97177.53
2022-08-21T04:20:39.902Z,97175.72
2022-08-21T04:23:07.408Z,97177.75
2022-08-21T04:25:34.522Z,97181.88
2022-08-21T04:28:02.837Z,97177.38
2022-08-21T04:30:30.233Z,97174.69
2022-08-21T04:32:59.003Z,97177.56
2022-08-21T04:35:28.156Z,97172.22
2022-08-21T04:37:55.500Z,97175.31
2022-08-21T04:40:28.523Z,97173.06
2022-08-21T04:43:01.670Z,97182.91
2022-08-21T04:45:32.083Z,97182.09
2022-08-21T04:48:00.963Z,97189.88
2022-08-21T04:50:32.756Z,97186.81
2022-08-21T04:53:13.645Z,97190.28
2022-08-21T04:55:43.207Z,97193.78
2022-08-21T04:58:12.746Z,97198.88
2022-08-21T05:00:40.404Z,97198.47
2022-08-21T05:03:09.997Z,97192.09
2022-08-21T05:05:36.956Z,97197.22
2022-08-21T05:08:04.321Z,97199.50
2022-08-21T05:10:32.507Z,97201.94
2022-08-21T05:13:01.578Z,97205.81
2022-08-21T05:15:28.368Z,97208.28
2022-08-21T05:18:01.635Z,97203.53
2022-08-21T05:20:29.680Z,97207.44
2022-08-21T05:22:56.822Z,97216.88
2022-08-21T05:25:24.103Z,97228.78
2022-08-21T05:27:51.987Z,97232.47
2022-08-21T05:30:20.450Z,97229.38
2022-08-21T05:32:48.613Z,97235.34
2022-08-21T05:35:16.070Z,97247.59
2022-08-21T05:37:42.900Z,97257.19
2022-08-21T05:40:22.549Z,97243.03
2022-08-21T05:42:55.377Z,97234.78
2022-08-21T05:45:42.883Z,97239.69
2022-08-21T05:48:12.124Z,97240.84
2022-08-21T05:50:39.216Z,97246.84
2022-08-21T05:53:07.939Z,97240.47
2022-08-21T05:55:36.424Z,97249.53
2022-08-21T05:58:03.555Z,97246.00
2022-08-21T06:00:30.618Z,97255.88
2022-08-21T06:02:57.789Z,97257.53
2022-08-21T06:05:33.413Z,97253.75
2022-08-21T06:08:04.787Z,97253.47
2022-08-21T06:10:32.235Z,97260.63
2022-08-21T06:12:59.138Z,97257.88
2022-08-21T06:15:26.083Z,97262.50
2022-08-21T06:17:54.506Z,97261.19
2022-08-21T06:20:22.541Z,97264.81
2022-08-21T06:22:49.821Z,97262.66
2022-08-21T06:25:16.886Z,97265.72
2022-08-21T06:27:43.606Z,97266.78
2022-08-21T06:30:10.788Z,97265.72
2022-08-21T06:32:38.273Z,97265.44
2022-08-21T06:35:07.088Z,97265.69
2022-08-21T06:37:34.317Z,97272.50
2022-08-21T06:40:01.304Z,97262.94
2022-08-21T06:42:29.072Z,97264.69
2022-08-21T06:44:55.898Z,97273.28
2022-08-21T06:47:22.958Z,97270.81
2022-08-21T06:49:49.734Z,97272.94
2022-08-21T06:52:16.852Z,97274.97
2022-08-21T06:54:44.005Z,97268.78
2022-08-21T06:57:10.661Z,97262.94
2022-08-21T06:59:37.429Z,97275.31
2022-08-21T07:02:04.994Z,97281.69
2022-08-21T07:04:31.962Z,97270.94
2022-08-21T07:06:58.884Z,97282.06
2022-08-21T07:09:25.601Z,97279.78
2022-08-21T07:11:54.544Z,97287.94
2022-08-21T07:14:21.790Z,97278.41
2022-08-21T07:16:49.925Z,97284.59
2022-08-21T07:19:16.603Z,97280.72
2022-08-21T07:21:43.384Z,97285.28
2022-08-21T07:24:12.563Z,97282.44
2022-08-21T07:26:39.458Z,97293.13
2022-08-21T07:29:06.141Z,97289.72
2022-08-21T07:31:32.875Z,97293.47
2022-08-21T07:33:59.816Z,97288.69
2022-08-21T07:36:27.036Z,97291.97
2022-08-21T07:38:54.005Z,97288.09
2022-08-21T07:41:24.999Z,97296.59
2022-08-21T07:43:52.810Z,97292.72
2022-08-21T07:46:20.622Z,97296.41
2022-08-21T07:48:47.557Z,97287.81
2022-08-21T07:51:16.250Z,97282.06
2022-08-21T07:53:48.093Z,97283.69
2022-08-21T07:56:14.819Z,97279.00
2022-08-21T07:58:41.450Z,97286.63
2022-08-21T08:01:08.191Z,97284.75
2022-08-21T08:03:35.346Z,97288.09
2022-08-21T08:06:02.128Z,97289.72
2022-08-21T08:08:29.101Z,97282.69
2022-08-21T08:10:58.110Z,97281.34
2022-08-21T08:13:25.491Z,97286.63
2022-08-21T08:15:52.274Z,97283.63
2022-08-21T08:18:19.130Z,97283.31
2022-08-21T08:20:45.946Z,97274.47
2022-08-21T08:23:14.370Z,97281.13
2022-08-21T08:25:41.342Z,97274.19
2022-08-21T08:28:17.205Z,97283.41
2022-08-21T08:30:46.541Z,97276.06
2022-08-21T08:33:14.024Z,97274.91
2022-08-21T08:35:42.329Z,97274.69
2022-08-21T08:38:09.439Z,97284.16
2022-08-21T08:40:44.995Z,97279.00
2022-08-21T08:43:14.462Z,97280.66
2022-08-21T08:45:46.603Z,97275.63
2022-08-21T08:48:17.734Z,97278.22
2022-08-21T08:51:01.298Z,97275.44
2022-08-21T08:53:38.031Z,97272.41
2022-08-21T08:56:06.695Z,97282.81
2022-08-21T08:58:41.988Z,97278.16
2022-08-21T09:01:17.112Z,97287.59
2022-08-21T09:03:45.327Z,97286.41
2022-08-21T09:06:30.032Z,97290.00
2022-08-21T09:09:15.861Z,97289.22
2022-08-21T09:11:53.919Z,97289.31
2022-08-21T09:14:51.334Z,97295.44
2022-08-21T09:17:38.235Z,97287.25
2022-08-21T09:20:47.729Z,97284.97
2022-08-21T09:23:16.996Z,97280.56
2022-08-21T09:26:13.328Z,97272.34
2022-08-21T09:28:42.246Z,97273.38
2022-08-21T09:31:21.401Z,97263.69
2022-08-21T09:33:48.140Z,97267.66
2022-08-21T09:36:29.258Z,97257.22
2022-08-21T09:38:58.054Z,97261.84
2022-08-21T09:41:32.414Z,97253.13
2022-08-21T09:43:59.346Z,97252.16
2022-08-21T09:46:27.871Z,97248.41
2022-08-21T09:49:00.385Z,97249.69
2022-08-21T09:51:33.974Z,97251.16
2022-08-21T09:54:07.069Z,97257.81
2022-08-21T09:56:54.075Z,97245.91
2022-08-21T09:59:36.832Z,97247.38
2022-08-21T10:02:22.820Z,97245.38
2022-08-21T10:04:54.963Z,97238.47
2022-08-21T10:07:24.510Z,97236.09
2022-08-21T10:10:05.711Z,97240.09
2022-08-21T10:13:31.063Z,97236.75
2022-08-21T10:16:34.575Z,97234.13
2022-08-21T10:19:43.659Z,97231.31
2022-08-21T10:22:33.458Z,97226.19
2022-08-21T10:25:16.126Z,97230.50
2022-08-21T10:27:56.161Z,97222.72
2022-08-21T10:30:39.019Z,97223.63
2022-08-21T10:33:40.560Z,97216.38
2022-08-21T10:36:22.469Z,97226.69
2022-08-21T10:39:26.031Z,97220.06
2022-08-21T10:42:19.208Z,97216.16
2022-08-21T10:44:51.503Z,97224.03
2022-08-21T10:48:10.519Z,97214.63
2022-08-21T10:50:51.231Z,97211.28
2022-08-21T10:53:26.719Z,97212.72
2022-08-21T10:56:02.649Z,97208.72
2022-08-21T10:58:46.569Z,97214.66
2022-08-21T11:01:24.793Z,97212.13
2022-08-21T11:03:55.886Z,97208.44
2022-08-21T11:06:26.081Z,97194.72
2022-08-21T11:09:00.545Z,97211.34
2022-08-21T11:11:36.714Z,97203.16
2022-08-21T11:14:16.293Z,97206.59
2022-08-21T11:16:46.683Z,97205.66
2022-08-21T11:19:33.455Z,97201.88
2022-08-21T11:22:19.974Z,97212.97
2022-08-21T11:25:01.618Z,97207.31
2022-08-21T11:28:10.905Z,97200.47
2022-08-21T11:31:24.041Z,97199.25
2022-08-21T11:34:01.770Z,97197.44
2022-08-21T11:36:47.102Z,97193.50
2022-08-21T11:39:27.629Z,97193.94
2022-08-21T11:42:00.716Z,97197.19
2022-08-21T11:44:56.606Z,97186.44
2022-08-21T11:48:03.768Z,97192.38
2022-08-21T11:50:35.424Z,97188.50
2022-08-21T11:53:03.037Z,97186.59
2022-08-21T11:55:49.946Z,97186.84
2022-08-21T11:58:33.578Z,97178.75
2022-08-21T12:01:19.958Z,97185.16
2022-08-21T12:04:01.234Z,97181.06
2022-08-21T12:06:38.050Z,97183.13
2022-08-21T12:09:08.951Z,97174.44
2022-08-21T12:11:48.671Z,97184.72
2022-08-21T12:14:18.467Z,97171.41
2022-08-21T12:16:47.974Z,97175.00
2022-08-21T12:19:30.402Z,97182.41
2022-08-21T12:22:11.157Z,97171.72
2022-08-21T12:24:50.702Z,97175.56
2022-08-21T12:27:50.454Z,97164.91
2022-08-21T12:30:36.490Z,97173.41
2022-08-21T12:33:20.327Z,97177.69
2022-08-21T12:35:50.588Z,97171.22
2022-08-21T12:38:24.803Z,97172.22
2022-08-21T12:41:34.569Z,97173.53
2022-08-21T12:44:13.641Z,97164.47
2022-08-21T12:46:58.770Z,97159.56
2022-08-21T12:49:37.639Z,97159.81
2022-08-21T12:52:13.760Z,97151.84
2022-08-21T12:54:43.868Z,97148.75
2022-08-21T12:57:20.381Z,97154.97
2022-08-21T12:59:47.223Z,97163.66
2022-08-21T13:02:21.358Z,97162.28
2022-08-21T13:04:49.992Z,97158.28
2022-08-21T13:07:25.555Z,97154.84
2022-08-21T13:10:01.163Z,97160.16
2022-08-21T13:12:32.437Z,97172.81
2022-08-21T13:15:04.313Z,97159.03
2022-08-21T13:17:39.612Z,97167.75
2022-08-21T13:20:11.219Z,97163.72
2022-08-21T13:22:43.285Z,97164.97
2022-08-21T13:25:16.407Z,97168.19
2022-08-21T13:27:46.814Z,97168.09
2022-08-21T13:30:23.782Z,97179.19
2022-08-21T13:32:59.670Z,97182.03
2022-08-21T13:35:37.105Z,97178.16
2022-08-21T13:38:06.330Z,97176.56
2022-08-21T13:40:43.779Z,97180.06
2022-08-21T13:43:18.372Z,97184.06
2022-08-21T13:45:55.284Z,97188.41
2022-08-21T13:48:24.648Z,97185.16
2022-08-21T13:50:51.842Z,97187.94
2022-08-21T13:53:32.751Z,97183.41
2022-08-21T13:56:01.817Z,97182.94
2022-08-21T13:58:32.224Z,97190.69
2022-08-21T14:01:01.747Z,97191.25
2022-08-21T14:03:42.480Z,97185.06
2022-08-21T14:06:23.156Z,97188.06
2022-08-21T14:08:54.779Z,97188.72
2022-08-21T14:11:22.359Z,97189.94
2022-08-21T14:13:55.967Z,97189.75
2022-08-21T14:16:26.480Z,97194.97
2022-08-21T14:19:04.098Z,97193.88
2022-08-21T14:21:40.755Z,97195.78
2022-08-21T14:24:10.804Z,97190.13
2022-08-21T14:26:46.856Z,97191.97
2022-08-21T14:29:16.948Z,97198.88
2022-08-21T14:31:44.622Z,97200.31
2022-08-21T14:34:19.209Z,97190.47
2022-08-21T14:36:47.859Z,97180.13
2022-08-21T14:39:14.672Z,97192.03
2022-08-21T14:41:43.568Z,97181.91
2022-08-21T14:44:10.491Z,97176.53
2022-08-21T14:46:51.591Z,97169.94
2022-08-21T14:49:27.537Z,97177.41
2022-08-21T14:51:58.133Z,97169.69
2022-08-21T14:54:31.616Z,97163.66
2022-08-21T14:57:02.656Z,97169.16
2022-08-21T14:59:30.396Z,97163.16
2022-08-21T15:01:57.302Z,97165.75
2022-08-21T15:04:24.751Z,97168.38
2022-08-21T15:06:51.743Z,97164.66
2022-08-21T15:09:18.440Z,97164.66
2022-08-21T15:11:45.477Z,97165.88
2022-08-21T15:14:20.015Z,97169.69
2022-08-21T15:16:47.277Z,97164.91
2022-08-21T15:19:14.090Z,97160.06
2022-08-21T15:21:40.784Z,97155.19
2022-08-21T15:24:07.559Z,97163.38
2022-08-21T15:26:35.439Z,97157.09
2022-08-21T15:29:02.489Z,97156.88
2022-08-21T15:31:34.042Z,97146.25
2022-08-21T15:34:00.711Z,97151.16
2022-08-21T15:36:27.785Z,97147.97
2022-08-21T15:38:54.468Z,97151.16
2022-08-21T15:41:21.270Z,97158.47
2022-08-21T15:43:54.203Z,97157.34
2022-08-21T15:46:22.335Z,97163.53
2022-08-21T15:48:49.183Z,97151.31
2022-08-21T15:51:17.678Z,97162.22
2022-08-21T15:53:45.233Z,97161.31
2022-08-21T15:56:37.076Z,97158.28
2022-08-21T15:59:09.354Z,97153.50
2022-08-21T16:01:44.542Z,97158.63
2022-08-21T16:04:28.137Z,97157.09
2022-08-21T16:07:01.770Z,97159.78
2022-08-21T16:09:32.166Z,97158.19
2022-08-21T16:12:03.229Z,97158.53
2022-08-21T16:14:31.739Z,97157.97
2022-08-21T16:16:59.195Z,97154.94
2022-08-21T16:19:29.415Z,97160.09
2022-08-21T16:21:56.136Z,97161.41
2022-08-21T16:24:25.082Z,97160.81
2022-08-21T16:26:57.927Z,97164.53
2022-08-21T16:29:30.083Z,97164.88
2022-08-21T16:31:56.810Z,97171.06
2022-08-21T16:34:24.206Z,97167.22
2022-08-21T16:36:50.919Z,97164.22
2022-08-21T16:39:17.667Z,97174.63
2022-08-21T16:41:44.646Z,97170.22
2022-08-21T16:44:11.782Z,97171.53
2022-08-21T16:46:40.411Z,97163.28
2022-08-21T16:49:08.046Z,97167.88
2022-08-21T16:51:36.083Z,97163.66
2022-08-21T16:54:03.209Z,97176.53
2022-08-21T16:56:30.985Z,97177.91
2022-08-21T16:58:58.747Z,97171.38
2022-08-21T17:01:29.999Z,97175.25
2022-08-21T17:03:56.815Z,97175.56
2022-08-21T17:06:28.972Z,97171.84
2022-08-21T17:08:56.945Z,97173.25
2022-08-21T17:11:37.180Z,97175.34
2022-08-21T17:14:17.920Z,97176.75
2022-08-21T17:16:47.426Z,97169.41
2022-08-21T17:19:14.926Z,97172.28
2022-08-21T17:21:42.017Z,97178.72
2022-08-21T17:24:09.683Z,97179.00
2022-08-21T17:26:37.435Z,97175.72
2022-08-21T17:29:09.825Z,97176.66
2022-08-21T17:31:38.871Z,97183.97
2022-08-21T17:34:06.801Z,97179.97
2022-08-21T17:36:33.542Z,97184.63
2022-08-21T17:39:00.628Z,97190.09
2022-08-21T17:41:27.591Z,97188.63
2022-08-21T17:43:55.287Z,97189.97
2022-08-21T17:46:26.794Z,97196.91
2022-08-21T17:48:53.511Z,97200.44
2022-08-21T17:51:20.502Z,97207.88
2022-08-21T17:53:47.215Z,97204.06
2022-08-21T17:56:16.265Z,97209.81
2022-08-21T17:58:48.325Z,97203.28
2022-08-21T18:01:15.245Z,97218.31
2022-08-21T18:03:42.418Z,97212.97
2022-08-21T18:06:12.340Z,97217.13
2022-08-21T18:08:42.222Z,97219.66
2022-08-21T18:11:10.444Z,97214.75
2022-08-21T18:13:44.871Z,97232.88
2022-08-21T18:16:19.228Z,97225.88
2022-08-21T18:18:49.003Z,97219.38
2022-08-21T18:21:15.862Z,97219.19
2022-08-21T18:23:43.870Z,97221.13
2022-08-21T18:26:14.447Z,97218.44
2022-08-21T18:28:41.909Z,97220.97
2022-08-21T18:31:11.718Z,97219.41
2022-08-21T18:33:56.948Z,97223.53
2022-08-21T18:36:26.476Z,97218.84
2022-08-21T18:38:54.105Z,97220.94
2022-08-21T18:41:21.930Z,97221.59
2022-08-21T18:43:48.577Z,97222.84
2022-08-21T18:46:15.659Z,97230.88
2022-08-21T18:48:43.859Z,97228.44
2022-08-21T18:51:12.301Z,97219.00
2022-08-21T18:53:39.499Z,97227.84
2022-08-21T18:56:07.196Z,97229.72
2022-08-21T18:58:44.282Z,97227.59
2022-08-21T19:01:12.083Z,97219.38
2022-08-21T19:03:39.784Z,97222.69
2022-08-21T19:06:09.762Z,97225.97
2022-08-21T19:08:38.923Z,97219.19
2022-08-21T19:11:06.585Z,97228.03
2022-08-21T19:13:34.123Z,97221.03
2022-08-21T19:16:03.897Z,97226.06
2022-08-21T19:18:33.531Z,97221.91
2022-08-21T19:21:02.858Z,97221.16
2022-08-21T19:23:30.313Z,97223.91
2022-08-21T19:26:01.165Z,97217.72
2022-08-21T19:28:32.393Z,97222.47
2022-08-21T19:31:05.288Z,97227.41
2022-08-21T19:33:37.584Z,97228.66
2022-08-21T19:36:08.103Z,97232.44
2022-08-21T19:38:37.215Z,97228.72
2022-08-21T19:41:07.360Z,97228.72
2022-08-21T19:43:49.737Z,97222.16
2022-08-21T19:46:26.035Z,97226.47
2022-08-21T19:48:54.779Z,97217.03
2022-08-21T19:51:21.929Z,97214.13
2022-08-21T19:53:52.571Z,97212.97
2022-08-21T19:56:30.414Z,97209.47
2022-08-21T19:58:59.822Z,97209.31
2022-08-21T20:01:28.011Z,97208.16
2022-08-21T20:06:44.254Z,97205.72
2022-08-21T20:09:11.186Z,97199.16
2022-08-21T20:11:50.243Z,97197.53
2022-08-21T20:14:20.927Z,97196.72
2022-08-21T20:19:39.002Z,97194.31
2022-08-21T20:22:06.942Z,97196.00
2022-08-21T20:24:34.047Z,97199.69
2022-08-21T20:27:02.653Z,97196.41
2022-08-21T20:32:20.125Z,97192.97
2022-08-21T20:37:37.393Z,97200.59
2022-08-21T20:40:12.756Z,97194.66
2022-08-21T20:42:41.439Z,97193.84
2022-08-21T20:45:12.446Z,97203.91
2022-08-21T20:47:40.205Z,97193.06
2022-08-21T20:50:13.719Z,97202.50
2022-08-21T20:52:41.720Z,97196.97
2022-08-21T20:55:15.358Z,97198.22
2022-08-21T20:58:05.938Z,97198.44
2022-08-21T21:00:38.947Z,97188.38
2022-08-21T21:03:17.186Z,97196.00
2022-08-21T21:06:14.256Z,97191.69
2022-08-21T21:08:48.846Z,97190.03
2022-08-21T21:11:26.170Z,97195.16
2022-08-21T21:14:01.880Z,97199.88
2022-08-21T21:16:51.878Z,97200.31
2022-08-21T21:19:39.802Z,97197.56
2022-08-21T21:22:21.931Z,97189.59
2022-08-21T21:25:00.269Z,97191.69
2022-08-21T21:27:34.813Z,97180.22
2022-08-21T21:30:21.605Z,97177.50
2022-08-21T21:32:48.818Z,97189.66
2022-08-21T21:35:17.170Z,97184.34
2022-08-21T21:38:10.094Z,97188.06
2022-08-21T21:40:51.096Z,97177.41
2022-08-21T21:44:01.791Z,97180.28
2022-08-21T21:46:48.402Z,97173.31
2022-08-21T21:49:27.265Z,97170.03
2022-08-21T21:52:33.519Z,97166.94
2022-08-21T21:55:09.138Z,97175.56
2022-08-21T21:58:03.719Z,97175.34
2022-08-21T22:00:34.232Z,97178.66
2022-08-21T22:03:39.546Z,97173.94
2022-08-21T22:06:43.513Z,97176.19
2022-08-21T22:09:49.250Z,97172.53
2022-08-21T22:13:09.482Z,97178.25
2022-08-21T22:15:46.051Z,97170.06
2022-08-21T22:18:25.703Z,97163.72
2022-08-21T22:21:09.880Z,97161.06
2022-08-21T22:23:43.351Z,97168.03
2022-08-21T22:26:17.416Z,97155.72
2022-08-21T22:28:47.888Z,97156.94
2022-08-21T22:31:22.380Z,97155.50
2022-08-21T22:34:17.818Z,97155.50
2022-08-21T22:36:56.458Z,97152.84
2022-08-21T22:39:38.851Z,97153.06
2022-08-21T22:42:10.832Z,97151.22
2022-08-21T22:44:54.094Z,97145.28
2022-08-21T22:47:24.808Z,97139.31
2022-08-21T22:49:54.633Z,97139.75
2022-08-21T22:52:24.860Z,97140.38
2022-08-21T22:54:57.623Z,97131.97
2022-08-21T22:57:30.641Z,97135.25
2022-08-21T23:00:03.559Z,97128.69
2022-08-21T23:02:57.131Z,97128.94
2022-08-21T23:05:34.663Z,97122.56
2022-08-21T23:08:24.045Z,97122.56
2022-08-21T23:11:12.653Z,97128.72
2022-08-21T23:13:43.876Z,97125.03
2022-08-21T23:16:36.629Z,97126.25
2022-08-21T23:19:19.675Z,97119.09
2022-08-21T23:22:06.221Z,97114.97
2022-08-21T23:24:57.703Z,97111.13
2022-08-21T23:27:38.208Z,97104.16
2022-08-21T23:30:18.474Z,97116.25
2022-08-21T23:33:17.438Z,97108.25
2022-08-21T23:36:10.251Z,97109.47
2022-08-21T23:38:59.535Z,97108.66
2022-08-21T23:41:55.817Z,97096.78
2022-08-21T23:44:26.019Z,97088.78
2022-08-21T23:47:22.667Z,97089.59
2022-08-21T23:49:56.935Z,97090.63
2022-08-21T23:52:33.977Z,97092.69
2022-08-21T23:55:06.512Z,97088.59
2022-08-21T23:57:51.825Z,97092.94
